Terminal Aerodrome Forecast
Issued by NWS Grand Forks, ND

Home | Current Version | Previous Version | Graphics & Text | Print | Product List | Glossary On
Versions: 1 2 3 4 5 6 7 8 9 10 11 12 13 14 15 16
000
FTUS43 KFGF 181652 AAB
TAFFAR
TAF AMD
KFAR 181652Z 1817/1912 32014G22KT P6SM SCT021
      TEMPO 1817/1818 BKN021
     FM190200 30009KT P6SM SKC
     FM191000 20006KT P6SM FEW250=

USA.gov is the U.S. government's official web portal to all federal, state and local government web resources and services.